Time;durP1;ratioP1;P1;durP2;ratioP2;P2;SDS_P1;SDS_P2;PMS_P1;PMS_P2;Temp;Humidity;BMP_temperature;BMP_pressure;BME280_temperature;BME280_humidity;BME280_pressure;Samples;Min_cycle;Max_cycle;Signal;HPM_P1;HPM_P2
2024/03/08 00:05:00;;;;;;;2.72;2.42;;;21.20;47.10;;;;;;10399731;28;20030;-60
2024/03/08 00:10:03;;;;;;;3.08;2.38;;;21.10;47.30;;;;;;10400086;28;20475;-60
2024/03/08 00:15:06;;;;;;;2.83;2.30;;;20.90;47.70;;;;;;10397244;28;20072;-61
2024/03/08 00:20:09;;;;;;;3.03;2.25;;;20.90;47.90;;;;;;10397642;28;20539;-62
2024/03/08 00:25:12;;;;;;;2.60;2.40;;;20.90;48.10;;;;;;10397782;28;20057;-62
2024/03/08 00:30:14;;;;;;;3.42;2.30;;;20.80;48.30;;;;;;10398477;28;20056;-62
2024/03/08 00:35:16;;;;;;;3.17;2.30;;;20.70;48.30;;;;;;10396192;28;20137;-62
2024/03/08 00:40:19;;;;;;;3.55;2.50;;;20.60;49.00;;;;;;10395079;28;20140;-62
2024/03/08 00:45:22;;;;;;;3.55;2.22;;;20.50;49.20;;;;;;10403197;28;20087;-61
2024/03/08 00:50:23;;;;;;;2.47;2.10;;;20.60;49.20;;;;;;10405090;28;20527;-61
2024/03/08 00:55:26;;;;;;;2.58;2.38;;;20.40;50.30;;;;;;10405404;28;20419;-61
2024/03/08 01:00:28;;;;;;;2.38;2.17;;;20.40;48.20;;;;;;10398337;28;20045;-58
2024/03/08 01:05:29;;;;;;;2.67;2.10;;;20.30;49.00;;;;;;10399403;28;20140;-58
2024/03/08 01:10:32;;;;;;;2.67;2.30;;;20.30;49.70;;;;;;10405777;28;20128;-53
2024/03/08 01:15:34;;;;;;;2.67;2.30;;;20.30;49.70;;;;;;10405996;28;20080;-59
2024/03/08 01:20:35;;;;;;;2.55;1.90;;;20.20;49.70;;;;;;10404125;28;20766;-57
2024/03/08 01:25:39;;;;;;;2.53;1.95;;;20.10;50.00;;;;;;10405621;28;20140;-58
2024/03/08 01:30:42;;;;;;;2.47;2.10;;;20.20;50.20;;;;;;10404205;28;20137;-58
2024/03/08 01:35:44;;;;;;;2.50;2.30;;;20.00;49.10;;;;;;10406299;28;20033;-60
2024/03/08 01:40:47;;;;;;;2.33;2.10;;;20.00;47.90;;;;;;10408253;28;20045;-59
2024/03/08 01:45:48;;;;;;;2.30;2.10;;;19.80;47.80;;;;;;10404785;28;20132;-59
2024/03/08 01:50:50;;;;;;;2.80;1.90;;;19.70;48.10;;;;;;10400606;28;20121;-60
2024/03/08 01:55:54;;;;;;;2.42;2.22;;;19.70;48.00;;;;;;10406479;28;20041;-60
2024/03/08 02:00:57;;;;;;;2.50;2.30;;;19.80;47.90;;;;;;10404235;28;20293;-59
2024/03/08 02:05:59;;;;;;;2.53;2.33;;;19.80;47.80;;;;;;10406609;28;20160;-61
2024/03/08 02:11:02;;;;;;;2.92;2.40;;;19.70;47.90;;;;;;10402997;28;20049;-61
2024/03/08 02:16:07;;;;;;;2.60;2.17;;;19.70;48.00;;;;;;10400138;28;20407;-62
2024/03/08 02:21:10;;;;;;;2.85;2.03;;;19.60;48.70;;;;;;10395743;28;21857;-59
2024/03/08 02:26:12;;;;;;;2.20;2.00;;;19.60;48.00;;;;;;10399535;28;20121;-66
2024/03/08 02:31:13;;;;;;;2.90;1.80;;;19.50;48.10;;;;;;10401929;28;20499;-61
2024/03/08 02:36:16;;;;;;;2.55;2.13;;;19.50;48.00;;;;;;10400559;28;20078;-59
2024/03/08 02:41:18;;;;;;;3.10;2.05;;;19.40;48.00;;;;;;10401758;28;20077;-60
2024/03/08 02:46:20;;;;;;;2.22;2.03;;;19.40;48.10;;;;;;10399733;28;20140;-62
2024/03/08 02:51:26;;;;;;;2.63;2.38;;;19.40;48.20;;;;;;10401869;28;20405;-61
2024/03/08 02:56:27;;;;;;;2.92;2.20;;;19.40;47.90;;;;;;10404354;28;20045;-57
2024/03/08 03:01:29;;;;;;;2.22;2.00;;;19.30;48.00;;;;;;10399816;28;20132;-57
2024/03/08 03:06:33;;;;;;;2.42;2.22;;;19.30;48.20;;;;;;10402954;28;20107;-61
2024/03/08 03:11:35;;;;;;;2.60;2.30;;;19.30;48.10;;;;;;10400174;28;20100;-60
2024/03/08 03:16:37;;;;;;;2.30;2.10;;;19.30;48.00;;;;;;10401007;28;20144;-62
2024/03/08 03:21:39;;;;;;;2.90;2.35;;;19.20;48.10;;;;;;10399342;28;20132;-60
2024/03/08 03:26:41;;;;;;;2.40;2.10;;;19.10;48.40;;;;;;10397838;28;20716;-62
2024/03/08 03:31:46;;;;;;;3.30;2.22;;;19.00;48.40;;;;;;10398054;28;20144;-60
2024/03/08 03:36:49;;;;;;;2.45;2.10;;;19.00;48.30;;;;;;10392623;28;20045;-61
2024/03/08 03:41:51;;;;;;;2.00;1.90;;;19.10;48.20;;;;;;10398106;28;20124;-61
2024/03/08 03:46:53;;;;;;;2.33;2.13;;;19.10;48.70;;;;;;10401201;28;20061;-60
2024/03/08 03:51:56;;;;;;;2.92;1.92;;;19.10;49.00;;;;;;10397184;28;20136;-61
2024/03/08 03:56:58;;;;;;;2.50;2.20;;;19.10;49.30;;;;;;10398538;28;20132;-62
2024/03/08 04:01:59;;;;;;;2.15;1.95;;;19.00;49.50;;;;;;10399674;28;20156;-60
2024/03/08 04:07:02;;;;;;;7.68;2.72;;;19.10;51.20;;;;;;10399678;28;20132;-61
2024/03/08 04:12:04;;;;;;;2.42;2.22;;;19.10;49.60;;;;;;10400021;28;20132;-62
2024/03/08 04:17:05;;;;;;;2.10;1.90;;;19.10;49.80;;;;;;10397189;28;20052;-61
2024/03/08 04:22:08;;;;;;;2.40;2.08;;;19.10;50.30;;;;;;10399684;28;20548;-58
2024/03/08 04:27:10;;;;;;;2.67;2.22;;;19.20;50.40;;;;;;10406588;28;20292;-59
2024/03/08 04:32:13;;;;;;;2.40;2.20;;;19.50;50.10;;;;;;10405069;28;20149;-56
2024/03/08 04:37:18;;;;;;;1.85;1.75;;;19.70;49.70;;;;;;10406735;28;20135;-59
2024/03/08 04:42:19;;;;;;;2.15;1.95;;;20.10;47.80;;;;;;10406426;28;20091;-56
2024/03/08 04:47:21;;;;;;;1.75;1.65;;;20.30;47.00;;;;;;10407248;28;20050;-58
2024/03/08 04:52:24;;;;;;;1.88;1.70;;;20.30;46.60;;;;;;10398070;28;20654;-59
2024/03/08 04:57:26;;;;;;;2.17;1.98;;;20.40;46.20;;;;;;10401729;28;20136;-56
2024/03/08 05:02:27;;;;;;;3.03;2.03;;;20.50;46.10;;;;;;10405779;28;20053;-58
2024/03/08 05:07:33;;;;;;;2.28;1.70;;;20.50;46.00;;;;;;10404449;28;20136;-59
2024/03/08 05:12:35;;;;;;;1.90;1.75;;;20.50;45.90;;;;;;10405376;28;20049;-58
2024/03/08 05:17:36;;;;;;;1.98;1.77;;;20.60;45.90;;;;;;10409280;28;20049;-59
2024/03/08 05:22:40;;;;;;;4.28;1.60;;;20.70;45.90;;;;;;10407662;28;20145;-57
2024/03/08 05:27:45;;;;;;;1.63;1.52;;;20.80;45.90;;;;;;10402593;28;20055;-55
2024/03/08 05:32:46;;;;;;;1.65;1.55;;;20.80;45.50;;;;;;10414040;28;20084;-56
2024/03/08 05:37:49;;;;;;;1.50;1.40;;;20.80;45.50;;;;;;10403578;28;20567;-59
2024/03/08 05:42:53;;;;;;;2.10;1.50;;;20.90;45.60;;;;;;10406221;28;20212;-56
2024/03/08 05:47:58;;;;;;;2.08;1.70;;;21.00;45.60;;;;;;10405549;28;20059;-61
2024/03/08 05:53:01;;;;;;;2.15;1.65;;;21.00;45.50;;;;;;10404009;28;20128;-60
2024/03/08 05:58:02;;;;;;;6.15;1.75;;;21.00;45.50;;;;;;10399665;28;20065;-61
2024/03/08 06:03:04;;;;;;;2.20;1.40;;;21.10;46.10;;;;;;10399492;28;20132;-61
2024/03/08 06:08:07;;;;;;;2.63;1.85;;;21.00;46.30;;;;;;10395180;28;20128;-61
2024/03/08 06:13:11;;;;;;;4.30;2.05;;;21.10;50.00;;;;;;10397549;28;20144;-61
2024/03/08 06:18:15;;;;;;;4.60;3.38;;;21.20;44.30;;;;;;10405058;28;20049;-61
2024/03/08 06:23:18;;;;;;;4.15;2.35;;;21.20;42.70;;;;;;10401195;28;20601;-59
2024/03/08 06:28:19;;;;;;;4.78;2.05;;;21.20;44.10;;;;;;10402088;28;20458;-61
2024/03/08 06:33:21;;;;;;;7.35;1.98;;;21.20;45.70;;;;;;10405103;28;20129;-61
2024/03/08 06:38:24;;;;;;;3.22;1.70;;;21.20;46.10;;;;;;10402637;28;20136;-61
2024/03/08 06:43:32;;;;;;;6.80;2.00;;;21.20;46.30;;;;;;10398479;28;20144;-61
2024/03/08 06:48:37;;;;;;;6.85;2.10;;;21.20;47.00;;;;;;10396422;28;20049;-62
2024/03/08 06:53:40;;;;;;;9.85;2.63;;;21.00;51.00;;;;;;10392533;28;20054;-60
2024/03/08 06:58:42;;;;;;;17.20;4.40;;;21.30;49.40;;;;;;10400755;28;20076;-61
2024/03/08 07:03:44;;;;;;;13.50;3.88;;;21.30;49.20;;;;;;10397432;28;20041;-61
2024/03/08 07:08:48;;;;;;;19.42;4.50;;;21.20;49.30;;;;;;10396333;28;20052;-60
2024/03/08 07:13:50;;;;;;;24.60;6.25;;;21.20;49.60;;;;;;10396176;28;20041;-57
2024/03/08 07:18:52;;;;;;;33.20;6.15;;;21.30;50.70;;;;;;10394607;28;20042;-60
2024/03/08 07:24:13;;;;;;;43.47;7.55;;;21.30;51.70;;;;;;10396123;28;20053;-56
2024/03/08 07:29:14;;;;;;;28.73;6.80;;;21.20;51.30;;;;;;10394822;28;20053;-55
2024/03/08 07:34:16;;;;;;;25.77;6.78;;;21.10;50.40;;;;;;10399881;28;20132;-59
2024/03/08 07:39:21;;;;;;;19.80;6.75;;;21.10;50.90;;;;;;10396200;28;20099;-58
2024/03/08 07:44:23;;;;;;;23.95;5.85;;;21.10;49.90;;;;;;10396983;28;20037;-58
2024/03/08 07:49:25;;;;;;;19.17;5.45;;;21.10;50.30;;;;;;10397669;28;20447;-57
2024/03/08 07:54:28;;;;;;;23.23;5.88;;;21.10;50.30;;;;;;10396838;28;20073;-58
2024/03/08 07:59:30;;;;;;;17.10;5.60;;;21.00;50.30;;;;;;10397285;28;20496;-58
2024/03/08 08:04:32;;;;;;;19.60;5.28;;;21.10;50.40;;;;;;10395356;28;20049;-57
2024/03/08 08:09:35;;;;;;;16.20;5.00;;;21.00;50.90;;;;;;10386741;28;20125;-58
2024/03/08 08:14:36;;;;;;;15.50;5.07;;;21.00;51.00;;;;;;10398804;28;20555;-59
2024/03/08 08:19:39;;;;;;;22.27;5.13;;;20.90;51.40;;;;;;10392487;28;20152;-60
2024/03/08 08:24:41;;;;;;;16.92;4.88;;;21.00;52.30;;;;;;10392814;28;20072;-57
2024/03/08 08:29:46;;;;;;;15.02;4.43;;;21.00;51.60;;;;;;10387851;28;20188;-57
2024/03/08 08:34:50;;;;;;;18.10;4.47;;;21.10;51.60;;;;;;10387137;28;20057;-56
2024/03/08 08:39:53;;;;;;;12.95;4.63;;;21.10;51.80;;;;;;10396093;28;20133;-56
2024/03/08 08:44:55;;;;;;;16.02;6.90;;;21.10;50.90;;;;;;10392096;28;20487;-59
2024/03/08 08:49:56;;;;;;;10.27;6.43;;;21.00;45.90;;;;;;10395599;28;20136;-55
2024/03/08 08:55:00;;;;;;;10.98;5.82;;;20.70;47.00;;;;;;10394353;28;20124;-58
2024/03/08 09:00:01;;;;;;;10.73;5.47;;;20.90;48.40;;;;;;10387600;28;20168;-59
2024/03/08 09:05:03;;;;;;;8.82;4.93;;;21.00;49.60;;;;;;10389646;28;20609;-60
2024/03/08 09:10:11;;;;;;;9.95;4.90;;;20.90;49.30;;;;;;10393929;28;20033;-57
2024/03/08 09:15:13;;;;;;;7.70;4.28;;;21.00;50.10;;;;;;10403344;28;20053;-57
2024/03/08 09:20:15;;;;;;;9.15;4.05;;;21.00;50.60;;;;;;10403283;28;20049;-59
2024/03/08 09:25:18;;;;;;;9.98;4.20;;;21.10;50.30;;;;;;10398471;28;20065;-60
2024/03/08 09:30:21;;;;;;;6.88;3.53;;;21.10;50.20;;;;;;10397508;28;20140;-58
2024/03/08 09:35:22;;;;;;;6.53;3.90;;;21.20;50.00;;;;;;10400601;28;20050;-58
2024/03/08 09:40:27;;;;;;;7.43;3.83;;;21.20;51.40;;;;;;10400906;28;20587;-58
2024/03/08 09:45:29;;;;;;;9.40;4.30;;;21.30;51.00;;;;;;10394325;28;20095;-56
2024/03/08 09:50:32;;;;;;;6.50;3.78;;;21.40;50.80;;;;;;10395088;28;20056;-59
2024/03/08 09:55:36;;;;;;;5.90;3.55;;;21.60;50.50;;;;;;10396113;28;20389;-59
2024/03/08 10:00:38;;;;;;;6.13;3.70;;;21.60;50.50;;;;;;10395450;28;20038;-59
2024/03/08 10:05:39;;;;;;;6.90;3.95;;;21.50;50.00;;;;;;10401748;28;20494;-59
2024/03/08 10:10:42;;;;;;;7.47;3.45;;;21.70;49.60;;;;;;10396396;28;20068;-59
2024/03/08 10:15:44;;;;;;;5.72;3.83;;;21.70;49.50;;;;;;10400531;28;20416;-58
2024/03/08 10:20:46;;;;;;;5.00;3.38;;;21.80;49.20;;;;;;10397465;28;20072;-58
2024/03/08 10:25:49;;;;;;;3.90;2.88;;;21.80;49.00;;;;;;10399719;28;20124;-59
2024/03/08 10:30:50;;;;;;;4.05;2.92;;;21.80;49.20;;;;;;10399522;28;20128;-57
2024/03/08 10:35:53;;;;;;;4.88;3.00;;;21.90;49.00;;;;;;10396017;28;20179;-60
2024/03/08 10:40:56;;;;;;;5.75;3.15;;;21.90;48.90;;;;;;10393529;28;20046;-58
2024/03/08 10:46:10;;;;;;;5.45;3.22;;;21.90;48.30;;;;;;10392360;28;20136;-58
2024/03/08 10:51:12;;;;;;;5.03;3.10;;;22.00;48.10;;;;;;10397664;28;20049;-59
2024/03/08 10:56:15;;;;;;;4.28;3.13;;;22.00;48.30;;;;;;10398595;28;20081;-59
2024/03/08 11:01:17;;;;;;;4.25;2.50;;;22.20;48.10;;;;;;10392632;28;20052;-60
2024/03/08 11:06:22;;;;;;;3.40;2.80;;;22.40;47.70;;;;;;10394569;28;20132;-58
2024/03/08 11:11:31;;;;;;;4.38;2.85;;;22.40;47.70;;;;;;10379194;28;20055;-58
2024/03/08 11:16:41;;;;;;;4.22;2.90;;;22.50;47.80;;;;;;10399518;28;20049;-60
2024/03/08 11:21:44;;;;;;;4.03;2.80;;;22.60;47.80;;;;;;10396179;28;20048;-59
2024/03/08 11:26:47;;;;;;;3.38;2.67;;;22.60;47.60;;;;;;10398360;28;20037;-58
2024/03/08 11:31:49;;;;;;;12.35;4.05;;;22.30;47.90;;;;;;10394804;28;20053;-59
2024/03/08 11:36:51;;;;;;;7.65;3.72;;;22.20;47.80;;;;;;10388197;28;20149;-59
2024/03/08 11:41:54;;;;;;;8.20;3.80;;;22.10;48.40;;;;;;10394139;28;20049;-59
2024/03/08 11:46:55;;;;;;;32.05;6.88;;;21.90;48.50;;;;;;10393134;28;20489;-58
2024/03/08 11:51:57;;;;;;;27.73;6.60;;;22.00;48.00;;;;;;10394012;28;20076;-58
2024/03/08 11:57:01;;;;;;;21.65;6.40;;;22.20;46.20;;;;;;10398858;28;20462;-58
2024/03/08 12:02:04;;;;;;;14.00;5.63;;;22.10;43.50;;;;;;10395798;28;20060;-57
2024/03/08 12:07:11;;;;;;;10.15;5.68;;;22.00;41.30;;;;;;10389746;28;20053;-58
2024/03/08 12:12:15;;;;;;;10.98;4.55;;;21.90;40.00;;;;;;10396977;28;20446;-58
2024/03/08 12:17:16;;;;;;;8.20;4.32;;;22.40;40.40;;;;;;10388930;28;20235;-60
2024/03/08 12:22:18;;;;;;;9.40;3.65;;;22.60;40.70;;;;;;10394202;28;20133;-58
2024/03/08 12:27:21;;;;;;;7.05;3.65;;;22.70;41.20;;;;;;10399395;28;20467;-58
2024/03/08 12:32:23;;;;;;;6.45;3.38;;;22.80;41.40;;;;;;10397604;28;20073;-56
2024/03/08 12:37:26;;;;;;;5.03;3.33;;;22.90;41.70;;;;;;10391354;28;20046;-58
2024/03/08 12:42:31;;;;;;;4.40;3.03;;;22.90;41.90;;;;;;10402627;28;20482;-58
2024/03/08 12:47:33;;;;;;;4.32;3.38;;;23.10;42.20;;;;;;10401788;28;20045;-58
2024/03/08 12:52:34;;;;;;;4.03;3.08;;;23.10;42.20;;;;;;10404464;28;20125;-59
2024/03/08 12:57:37;;;;;;;5.40;3.42;;;23.10;42.50;;;;;;10397402;28;20049;-59
2024/03/08 13:02:39;;;;;;;5.20;3.70;;;23.10;42.80;;;;;;10400208;28;20045;-58
2024/03/08 13:07:45;;;;;;;5.97;4.32;;;22.90;41.40;;;;;;10395206;28;20042;-58
2024/03/08 13:12:48;;;;;;;6.32;4.35;;;22.80;40.60;;;;;;10390121;28;20084;-59
2024/03/08 13:17:50;;;;;;;6.05;4.60;;;22.70;39.60;;;;;;10396715;28;20499;-55
2024/03/08 13:22:52;;;;;;;7.90;5.05;;;22.60;38.40;;;;;;10393305;28;20045;-56
2024/03/08 13:27:57;;;;;;;6.50;4.50;;;22.70;37.80;;;;;;10401289;28;20079;-57
2024/03/08 13:32:58;;;;;;;9.02;5.20;;;22.70;37.50;;;;;;10395712;28;20042;-55
2024/03/08 13:38:02;;;;;;;6.80;4.90;;;22.70;36.90;;;;;;10403473;28;20133;-58
2024/03/08 13:43:07;;;;;;;6.85;4.88;;;22.80;36.60;;;;;;10399400;28;20053;-57
2024/03/08 13:48:12;;;;;;;6.40;4.63;;;22.70;36.20;;;;;;10405610;28;20046;-57
2024/03/08 13:53:14;;;;;;;5.65;4.90;;;22.70;36.30;;;;;;10400051;28;20045;-51
2024/03/08 13:58:17;;;;;;;7.28;4.30;;;22.80;35.90;;;;;;10397597;28;20148;-53
2024/03/08 14:03:20;;;;;;;7.10;4.70;;;22.90;35.60;;;;;;10405197;28;20046;-52
2024/03/08 14:08:22;;;;;;;6.82;5.00;;;22.80;35.30;;;;;;10400020;28;20037;-57
2024/03/08 14:13:25;;;;;;;5.25;4.18;;;22.80;35.40;;;;;;10392197;28;20038;-57
2024/03/08 14:18:29;;;;;;;5.45;4.43;;;22.80;35.50;;;;;;10391706;28;20056;-56
2024/03/08 14:23:30;;;;;;;6.22;4.50;;;22.70;35.30;;;;;;10390362;28;20046;-59
2024/03/08 14:28:33;;;;;;;5.90;4.70;;;22.70;34.90;;;;;;10387096;28;20037;-59
2024/03/08 14:33:35;;;;;;;6.43;4.95;;;22.60;34.80;;;;;;10393821;28;20125;-59
2024/03/08 14:38:38;;;;;;;7.35;4.70;;;22.70;34.70;;;;;;10398284;28;20688;-54
2024/03/08 14:43:41;;;;;;;7.00;5.13;;;22.70;34.50;;;;;;10399684;28;20042;-58
2024/03/08 14:48:42;;;;;;;7.32;4.82;;;22.50;34.40;;;;;;10399103;28;20132;-59
2024/03/08 14:53:45;;;;;;;5.60;4.82;;;22.40;34.60;;;;;;10400100;28;20133;-54
2024/03/08 14:58:49;;;;;;;9.52;5.00;;;22.60;34.70;;;;;;10401732;28;20779;-59
2024/03/08 15:03:50;;;;;;;7.07;5.00;;;22.70;33.90;;;;;;10398221;28;20053;-57
2024/03/08 15:08:52;;;;;;;6.07;4.60;;;22.80;34.10;;;;;;10398640;28;20140;-56
2024/03/08 15:13:57;;;;;;;6.90;4.82;;;22.90;34.00;;;;;;10396189;28;20419;-60
2024/03/08 15:19:00;;;;;;;6.10;4.25;;;22.90;34.00;;;;;;10395976;28;20121;-59
2024/03/08 15:24:02;;;;;;;6.30;4.18;;;23.00;33.90;;;;;;10394487;28;20050;-57
2024/03/08 15:29:05;;;;;;;5.60;4.50;;;23.10;33.60;;;;;;10392039;28;20044;-57
2024/03/08 15:34:08;;;;;;;7.75;4.60;;;23.20;33.60;;;;;;10387652;28;20504;-60
2024/03/08 15:39:11;;;;;;;5.30;4.30;;;23.50;33.10;;;;;;10400232;28;20059;-57
2024/03/08 15:44:15;;;;;;;5.43;4.47;;;24.40;33.00;;;;;;10396259;28;20467;-55
2024/03/08 15:49:18;;;;;;;5.85;4.55;;;24.50;32.60;;;;;;10387835;28;20037;-55
2024/03/08 15:54:21;;;;;;;5.38;4.00;;;24.50;32.30;;;;;;10393772;28;20507;-58
2024/03/08 15:59:26;;;;;;;7.47;4.18;;;24.20;30.60;;;;;;10396369;28;20069;-55
2024/03/08 16:04:29;;;;;;;4.78;4.28;;;23.90;30.70;;;;;;10397727;28;20049;-55
2024/03/08 16:09:31;;;;;;;6.75;4.35;;;23.80;30.80;;;;;;10396653;28;20034;-55
2024/03/08 16:14:37;;;;;;;5.90;4.45;;;23.70;30.80;;;;;;10394970;28;20073;-57
2024/03/08 16:19:41;;;;;;;6.30;4.38;;;23.70;30.60;;;;;;10404416;28;20038;-56
2024/03/08 16:24:44;;;;;;;4.80;4.00;;;23.60;30.90;;;;;;10402270;28;20045;-55
2024/03/08 16:29:47;;;;;;;5.68;4.30;;;23.50;31.50;;;;;;10398217;28;20034;-53
2024/03/08 16:34:51;;;;;;;5.60;4.25;;;23.50;31.00;;;;;;10396579;28;20042;-55
2024/03/08 16:39:53;;;;;;;4.85;4.10;;;23.50;31.10;;;;;;10400213;28;20128;-58
2024/03/08 16:44:55;;;;;;;7.15;4.18;;;23.30;31.30;;;;;;10396996;28;20126;-55
2024/03/08 16:50:00;;;;;;;5.20;4.18;;;23.20;31.40;;;;;;10403727;28;20455;-60
2024/03/08 16:55:02;;;;;;;5.38;4.45;;;23.20;31.60;;;;;;10402820;28;20576;-55
2024/03/08 17:00:13;;;;;;;4.97;3.97;;;23.10;31.80;;;;;;10401139;28;20099;-54
2024/03/08 17:05:16;;;;;;;6.32;4.50;;;23.10;31.70;;;;;;10401972;28;20133;-58
2024/03/08 17:10:19;;;;;;;5.25;4.65;;;23.10;31.80;;;;;;10401765;28;20099;-55
2024/03/08 17:15:22;;;;;;;5.72;4.70;;;23.00;31.90;;;;;;10403628;28;20487;-56
2024/03/08 17:20:24;;;;;;;5.15;4.28;;;23.00;31.90;;;;;;10412020;28;20037;-56
2024/03/08 17:25:27;;;;;;;4.50;3.95;;;23.00;32.10;;;;;;10402896;28;20042;-58
2024/03/08 17:30:32;;;;;;;5.40;4.13;;;22.90;32.40;;;;;;10402497;28;20053;-59
2024/03/08 17:35:34;;;;;;;6.57;4.75;;;22.90;32.30;;;;;;10399796;28;20053;-58
2024/03/08 17:40:37;;;;;;;6.18;4.25;;;22.90;32.90;;;;;;10397980;28;20424;-58
2024/03/08 17:45:42;;;;;;;4.93;4.05;;;22.90;32.20;;;;;;10401047;28;20076;-59
2024/03/08 17:50:44;;;;;;;5.07;4.15;;;22.80;32.30;;;;;;10398287;28;20042;-58
2024/03/08 17:55:45;;;;;;;9.43;5.00;;;22.90;32.40;;;;;;10406089;28;20406;-57
2024/03/08 18:00:51;;;;;;;10.52;4.72;;;22.80;32.30;;;;;;10399588;28;20124;-55
2024/03/08 18:05:52;;;;;;;9.10;4.85;;;22.80;32.60;;;;;;10400428;28;20073;-54
2024/03/08 18:10:54;;;;;;;6.30;4.85;;;22.90;32.80;;;;;;10398000;28;20125;-56
2024/03/08 18:15:57;;;;;;;8.80;5.65;;;22.80;32.80;;;;;;10397212;28;20411;-55
2024/03/08 18:20:58;;;;;;;8.32;5.50;;;22.80;33.50;;;;;;10400461;28;20133;-56
2024/03/08 18:26:09;;;;;;;9.52;6.20;;;22.80;33.80;;;;;;10394203;28;20132;-57
2024/03/08 18:31:13;;;;;;;;;;;22.80;33.50;;;;;;10399677;28;20080;-56
2024/03/08 18:36:15;;;;;;;12.38;4.88;;;22.80;34.50;;;;;;10399071;28;19928;-57
2024/03/08 18:41:17;;;;;;;9.80;5.70;;;22.90;35.20;;;;;;10389304;28;20072;-56
2024/03/08 18:46:20;;;;;;;11.15;6.50;;;22.90;34.80;;;;;;10397523;28;20058;-57
2024/03/08 18:51:23;;;;;;;8.77;6.53;;;23.00;35.40;;;;;;10399131;28;20092;-58
2024/03/08 18:56:24;;;;;;;7.43;5.95;;;23.20;35.50;;;;;;10390023;28;20060;-54
2024/03/08 19:01:31;;;;;;;6.50;5.80;;;23.10;35.40;;;;;;10389337;28;20199;-54
2024/03/08 19:06:33;;;;;;;8.30;6.43;;;23.10;35.40;;;;;;10397814;28;20053;-55
2024/03/08 19:11:36;;;;;;;6.97;5.80;;;23.20;35.30;;;;;;10399000;28;20050;-56
2024/03/08 19:16:41;;;;;;;9.48;6.47;;;23.20;35.10;;;;;;10392405;28;20548;-54
2024/03/08 19:21:44;;;;;;;6.70;5.70;;;23.00;35.40;;;;;;10397886;28;20074;-58
2024/03/08 19:26:46;;;;;;;7.55;4.55;;;22.70;36.20;;;;;;10394733;28;20137;-58
2024/03/08 19:31:49;;;;;;;5.32;3.72;;;22.70;37.10;;;;;;10388795;28;20838;-58
2024/03/08 19:36:52;;;;;;;4.50;3.60;;;22.60;37.50;;;;;;10394140;28;20127;-57
2024/03/08 19:41:54;;;;;;;4.45;3.30;;;22.60;37.80;;;;;;10395116;28;20045;-59
2024/03/08 19:46:57;;;;;;;5.15;3.95;;;22.50;38.00;;;;;;10396334;28;20140;-58
2024/03/08 19:51:59;;;;;;;11.68;3.42;;;22.60;38.60;;;;;;10399383;28;20049;-59
2024/03/08 19:57:06;;;;;;;5.55;3.10;;;22.50;38.80;;;;;;10396801;28;20053;-57
2024/03/08 20:02:09;;;;;;;4.78;3.20;;;22.60;38.90;;;;;;10393373;28;20500;-59
2024/03/08 20:07:13;;;;;;;5.40;3.17;;;22.50;39.00;;;;;;10387562;28;20140;-60
2024/03/08 20:12:16;;;;;;;3.85;2.70;;;22.80;38.70;;;;;;10395133;28;20053;-59
2024/03/08 20:17:19;;;;;;;4.15;2.97;;;23.10;38.40;;;;;;10398007;28;20498;-61
2024/03/08 20:22:21;;;;;;;5.30;2.85;;;23.20;37.90;;;;;;10400213;28;20099;-58
2024/03/08 20:27:26;;;;;;;5.20;3.08;;;23.00;38.20;;;;;;10394466;28;20053;-60
2024/03/08 20:32:29;;;;;;;3.67;2.72;;;23.10;38.40;;;;;;10392544;28;20052;-58
2024/03/08 20:37:31;;;;;;;4.70;2.88;;;22.80;38.60;;;;;;10390753;28;20132;-60
2024/03/08 20:42:32;;;;;;;4.32;2.70;;;22.80;38.70;;;;;;10387031;28;20703;-60
2024/03/08 20:47:36;;;;;;;3.85;2.65;;;22.80;38.70;;;;;;10390611;28;20128;-59
2024/03/08 20:52:41;;;;;;;3.78;2.70;;;22.80;38.50;;;;;;10398847;28;20518;-56
2024/03/08 20:57:48;;;;;;;3.92;2.90;;;22.90;38.50;;;;;;10393877;28;20046;-58
2024/03/08 21:02:58;;;;;;;3.03;2.53;;;22.90;38.50;;;;;;10392853;28;20129;-57
2024/03/08 21:08:00;;;;;;;3.92;2.90;;;22.90;38.40;;;;;;10401659;28;20145;-59
2024/03/08 21:13:02;;;;;;;3.15;2.85;;;22.80;39.40;;;;;;10398560;28;20077;-59
2024/03/08 21:18:05;;;;;;;3.15;2.40;;;22.60;39.60;;;;;;10397860;28;20082;-55
2024/03/08 21:23:07;;;;;;;7.32;2.58;;;22.70;40.20;;;;;;10395231;28;20083;-59
2024/03/08 21:28:08;;;;;;;3.17;2.70;;;22.80;38.80;;;;;;10394727;28;20639;-59
2024/03/08 21:33:11;;;;;;;4.38;2.50;;;22.60;39.00;;;;;;10394921;28;20140;-57
2024/03/08 21:38:14;;;;;;;2.65;2.30;;;22.60;39.10;;;;;;10384378;28;20061;-57
2024/03/08 21:43:16;;;;;;;3.80;2.40;;;22.70;38.80;;;;;;10395716;28;20045;-59
2024/03/08 21:48:19;;;;;;;3.47;2.20;;;22.70;39.00;;;;;;10395353;28;20165;-57
2024/03/08 21:53:20;;;;;;;3.05;2.67;;;22.50;39.20;;;;;;10397050;28;20136;-59
2024/03/08 21:58:22;;;;;;;3.15;2.33;;;22.40;39.30;;;;;;10397647;28;20046;-59
2024/03/08 22:03:30;;;;;;;2.90;2.28;;;22.40;39.40;;;;;;10399208;28;20507;-59
2024/03/08 22:08:32;;;;;;;2.90;2.33;;;22.20;39.60;;;;;;10402462;28;20049;-59
2024/03/08 22:13:34;;;;;;;2.40;2.20;;;22.00;40.00;;;;;;10395905;28;20136;-58
2024/03/08 22:18:37;;;;;;;2.50;2.30;;;21.90;40.30;;;;;;10389874;28;20077;-55
2024/03/08 22:23:39;;;;;;;2.47;2.28;;;21.70;40.50;;;;;;10404356;28;20998;-55
2024/03/08 22:28:43;;;;;;;3.28;2.40;;;21.60;40.60;;;;;;10403639;28;20136;-57
2024/03/08 22:33:46;;;;;;;2.70;2.22;;;21.50;40.80;;;;;;10399201;28;20041;-59
2024/03/08 22:38:48;;;;;;;2.22;2.03;;;21.40;40.70;;;;;;10395411;28;20049;-58
2024/03/08 22:43:51;;;;;;;2.20;2.00;;;21.30;40.90;;;;;;10389685;28;20051;-58
2024/03/08 22:48:54;;;;;;;2.80;2.28;;;21.20;40.90;;;;;;10391937;28;20049;-58
2024/03/08 22:53:56;;;;;;;5.95;2.50;;;21.10;41.10;;;;;;10393096;28;20053;-57
2024/03/08 22:58:58;;;;;;;5.65;2.58;;;21.20;44.90;;;;;;10390953;28;20128;-58
2024/03/08 23:04:01;;;;;;;3.92;2.60;;;20.80;43.40;;;;;;10391000;28;20037;-59
2024/03/08 23:09:03;;;;;;;4.55;2.63;;;20.70;44.10;;;;;;10392715;28;20085;-56
2024/03/08 23:14:06;;;;;;;2.55;2.33;;;20.60;44.90;;;;;;10398025;28;20050;-58
2024/03/08 23:19:09;;;;;;;4.35;2.10;;;20.70;44.90;;;;;;10402178;28;20107;-59
2024/03/08 23:24:10;;;;;;;5.15;2.53;;;20.90;44.70;;;;;;10399715;28;20053;-57
2024/03/08 23:29:14;;;;;;;5.95;2.40;;;20.90;45.00;;;;;;10392171;28;20141;-58
2024/03/08 23:34:18;;;;;;;3.92;2.10;;;20.70;45.30;;;;;;10388705;28;20462;-59
2024/03/08 23:39:21;;;;;;;7.15;2.40;;;20.80;45.50;;;;;;10392342;28;20419;-58
2024/03/08 23:44:23;;;;;;;4.75;2.30;;;20.70;45.50;;;;;;10398069;28;20041;-58
2024/03/08 23:49:27;;;;;;;3.60;2.25;;;20.80;45.30;;;;;;10393287;28;20132;-57
2024/03/08 23:54:29;;;;;;;6.53;2.10;;;20.90;45.00;;;;;;10389407;28;20648;-59
2024/03/08 23:59:30;;;;;;;3.35;2.10;;;20.80;45.10;;;;;;10392008;28;20141;-56
